Terminal Aerodrome Forecast
Issued by NWS Billings, MT

Home | Current Version | Previous Version | Text Only | Print | Product List | Glossary On
Versions: 1 2 3 4 5 6 7 8 9 10 11 12 13 14 15 16 17 18 19
000
FTUS45 KBYZ 231726
TAFSHR
TAF
KSHR 231726Z 2318/2418 32027G35KT P6SM SKC
     FM232300 33021G30KT P6SM SKC
     FM240200 30012G20KT P6SM SKC
     FM241200 VRB04KT P6SM SKC=

USA.gov is the U.S. government's official web portal to all federal, state and local government web resources and services.